LFMP/PGF METAR and TAF weather

Enter ICAO airport designator
Station Type Date Time Source
LFMP METAR 2021/07/28 19:00 UTC NOAA

LFMP 281900Z AUTO 29010KT 9999 SCT047 BKN056 24/15 Q1016 NOSIG


Station Type Date Time Source
LFMP Decoded METAR 2021/07/28 19:00 UTC NOAA

Perpignan, France (LFMP) 42-44N 002-52E 48M
Jul 28, 2021 - 03:00 PM EDT / 2021.07.28 1900 UTC
Wind: from the WNW (290 degrees) at 12 MPH (10 KT):0
Visibility: greater than 7 mile(s):0
Sky conditions: mostly cloudy
Temperature: 75 F (24 C)
Dew Point: 59 F (15 C)
Relative Humidity: 57%
Pressure (altimeter): 30.00 in. Hg (1016 hPa)
ob: LFMP 281900Z AUTO 29010KT 9999 SCT047 BKN056 24/15 Q1016 NOSIG
cycle: 19

Station Type Date Time Source
LFMP TAF 2021/07/28 15:50 UTC NOAA

TAF
AMD LFMP 281543Z 2815/2915 30010KT 9999 BKN040
BECMG 2901/2903 VRB04KT CAVOK
BECMG 2909/2911 10010KT

Example: see airport list